sensor_id;sensor_type;location;lat;lon;timestamp;P1;durP1;ratioP1;P2;durP2;ratioP2
20743;SDS011;56303;52.160;-0.428;2023-03-01T00:01:03;5.70;;;3.90;;
20743;SDS011;56303;52.160;-0.428;2023-03-01T00:03:31;4.83;;;3.57;;
20743;SDS011;56303;52.160;-0.428;2023-03-01T00:05:59;5.40;;;4.03;;
20743;SDS011;56303;52.160;-0.428;2023-03-01T00:08:26;5.77;;;4.20;;
20743;SDS011;56303;52.160;-0.428;2023-03-01T00:11:00;6.07;;;4.77;;
20743;SDS011;56303;52.160;-0.428;2023-03-01T00:13:30;5.60;;;4.10;;
20743;SDS011;56303;52.160;-0.428;2023-03-01T00:15:57;5.00;;;3.53;;
20743;SDS011;56303;52.160;-0.428;2023-03-01T00:18:24;5.33;;;3.40;;
20743;SDS011;56303;52.160;-0.428;2023-03-01T00:20:51;5.20;;;2.97;;
20743;SDS011;56303;52.160;-0.428;2023-03-01T00:23:20;3.93;;;2.90;;
20743;SDS011;56303;52.160;-0.428;2023-03-01T00:25:48;3.17;;;2.30;;
20743;SDS011;56303;52.160;-0.428;2023-03-01T00:28:15;5.43;;;2.30;;
20743;SDS011;56303;52.160;-0.428;2023-03-01T00:30:42;3.17;;;2.17;;
20743;SDS011;56303;52.160;-0.428;2023-03-01T00:33:09;2.73;;;2.00;;
20743;SDS011;56303;52.160;-0.428;2023-03-01T00:35:36;3.00;;;2.27;;
20743;SDS011;56303;52.160;-0.428;2023-03-01T00:38:04;2.93;;;2.23;;
20743;SDS011;56303;52.160;-0.428;2023-03-01T00:40:32;3.60;;;2.23;;
20743;SDS011;56303;52.160;-0.428;2023-03-01T00:43:01;4.33;;;2.67;;
20743;SDS011;56303;52.160;-0.428;2023-03-01T00:45:29;4.83;;;3.27;;
20743;SDS011;56303;52.160;-0.428;2023-03-01T00:47:57;6.77;;;3.23;;
20743;SDS011;56303;52.160;-0.428;2023-03-01T00:50:24;5.83;;;3.47;;
20743;SDS011;56303;52.160;-0.428;2023-03-01T00:52:52;5.00;;;3.33;;
20743;SDS011;56303;52.160;-0.428;2023-03-01T00:55:22;3.93;;;2.70;;
20743;SDS011;56303;52.160;-0.428;2023-03-01T00:57:51;5.10;;;2.83;;
20743;SDS011;56303;52.160;-0.428;2023-03-01T01:00:19;4.73;;;2.87;;
20743;SDS011;56303;52.160;-0.428;2023-03-01T01:02:46;3.70;;;2.80;;
20743;SDS011;56303;52.160;-0.428;2023-03-01T01:05:16;10.20;;;3.13;;
20743;SDS011;56303;52.160;-0.428;2023-03-01T01:07:54;4.23;;;2.90;;
20743;SDS011;56303;52.160;-0.428;2023-03-01T01:10:21;5.93;;;2.83;;
20743;SDS011;56303;52.160;-0.428;2023-03-01T01:12:47;5.37;;;2.77;;
20743;SDS011;56303;52.160;-0.428;2023-03-01T01:15:14;4.87;;;2.83;;
20743;SDS011;56303;52.160;-0.428;2023-03-01T01:17:42;3.97;;;2.80;;
20743;SDS011;56303;52.160;-0.428;2023-03-01T01:20:10;4.87;;;2.90;;
20743;SDS011;56303;52.160;-0.428;2023-03-01T01:22:37;5.77;;;2.80;;
20743;SDS011;56303;52.160;-0.428;2023-03-01T01:25:05;7.80;;;4.77;;
20743;SDS011;56303;52.160;-0.428;2023-03-01T01:27:32;5.50;;;3.10;;
20743;SDS011;56303;52.160;-0.428;2023-03-01T01:29:59;4.90;;;3.20;;
20743;SDS011;56303;52.160;-0.428;2023-03-01T01:32:26;5.77;;;2.87;;
20743;SDS011;56303;52.160;-0.428;2023-03-01T01:34:53;10.93;;;3.53;;
20743;SDS011;56303;52.160;-0.428;2023-03-01T01:37:19;5.33;;;3.30;;
20743;SDS011;56303;52.160;-0.428;2023-03-01T01:39:46;5.30;;;3.13;;
20743;SDS011;56303;52.160;-0.428;2023-03-01T01:42:17;5.70;;;2.70;;
20743;SDS011;56303;52.160;-0.428;2023-03-01T01:44:47;6.63;;;2.83;;
20743;SDS011;56303;52.160;-0.428;2023-03-01T01:47:16;4.90;;;2.90;;
20743;SDS011;56303;52.160;-0.428;2023-03-01T01:49:47;5.67;;;3.03;;
20743;SDS011;56303;52.160;-0.428;2023-03-01T01:52:21;5.87;;;3.40;;
20743;SDS011;56303;52.160;-0.428;2023-03-01T01:54:58;4.83;;;2.87;;
20743;SDS011;56303;52.160;-0.428;2023-03-01T01:57:31;4.57;;;2.77;;
20743;SDS011;56303;52.160;-0.428;2023-03-01T02:00:04;6.53;;;3.20;;
20743;SDS011;56303;52.160;-0.428;2023-03-01T02:02:38;5.70;;;3.33;;
20743;SDS011;56303;52.160;-0.428;2023-03-01T02:07:59;5.37;;;3.03;;
20743;SDS011;56303;52.160;-0.428;2023-03-01T02:10:26;5.53;;;2.90;;
20743;SDS011;56303;52.160;-0.428;2023-03-01T02:12:55;5.93;;;3.00;;
20743;SDS011;56303;52.160;-0.428;2023-03-01T02:15:23;8.03;;;2.93;;
20743;SDS011;56303;52.160;-0.428;2023-03-01T02:17:50;6.77;;;3.00;;
20743;SDS011;56303;52.160;-0.428;2023-03-01T02:20:23;6.47;;;3.00;;
20743;SDS011;56303;52.160;-0.428;2023-03-01T02:22:57;6.17;;;2.97;;
20743;SDS011;56303;52.160;-0.428;2023-03-01T02:25:30;5.90;;;3.43;;
20743;SDS011;56303;52.160;-0.428;2023-03-01T02:30:40;5.77;;;3.43;;
20743;SDS011;56303;52.160;-0.428;2023-03-01T02:33:34;7.63;;;3.70;;
20743;SDS011;56303;52.160;-0.428;2023-03-01T02:36:03;7.03;;;3.83;;
20743;SDS011;56303;52.160;-0.428;2023-03-01T02:38:33;5.43;;;3.13;;
20743;SDS011;56303;52.160;-0.428;2023-03-01T02:41:00;6.23;;;3.60;;
20743;SDS011;56303;52.160;-0.428;2023-03-01T02:43:33;6.10;;;3.20;;
20743;SDS011;56303;52.160;-0.428;2023-03-01T02:46:05;7.57;;;3.27;;
20743;SDS011;56303;52.160;-0.428;2023-03-01T02:48:55;7.17;;;3.70;;
20743;SDS011;56303;52.160;-0.428;2023-03-01T02:56:38;6.80;;;3.03;;
20743;SDS011;56303;52.160;-0.428;2023-03-01T02:59:05;9.10;;;3.40;;
20743;SDS011;56303;52.160;-0.428;2023-03-01T03:01:33;6.03;;;3.23;;
20743;SDS011;56303;52.160;-0.428;2023-03-01T03:04:06;8.20;;;4.03;;
20743;SDS011;56303;52.160;-0.428;2023-03-01T03:06:46;8.50;;;3.87;;
20743;SDS011;56303;52.160;-0.428;2023-03-01T03:09:15;6.13;;;3.10;;
20743;SDS011;56303;52.160;-0.428;2023-03-01T03:11:43;4.77;;;3.07;;
20743;SDS011;56303;52.160;-0.428;2023-03-01T03:14:10;6.73;;;3.13;;
20743;SDS011;56303;52.160;-0.428;2023-03-01T03:16:41;6.70;;;3.20;;
20743;SDS011;56303;52.160;-0.428;2023-03-01T03:19:09;9.00;;;3.80;;
20743;SDS011;56303;52.160;-0.428;2023-03-01T03:21:37;8.73;;;3.70;;
20743;SDS011;56303;52.160;-0.428;2023-03-01T03:24:04;8.83;;;3.80;;
20743;SDS011;56303;52.160;-0.428;2023-03-01T03:26:31;10.07;;;3.67;;
20743;SDS011;56303;52.160;-0.428;2023-03-01T03:28:59;10.43;;;3.93;;
20743;SDS011;56303;52.160;-0.428;2023-03-01T03:31:25;6.40;;;3.33;;
20743;SDS011;56303;52.160;-0.428;2023-03-01T03:33:53;8.03;;;3.93;;
20743;SDS011;56303;52.160;-0.428;2023-03-01T03:36:22;9.07;;;4.13;;
20743;SDS011;56303;52.160;-0.428;2023-03-01T03:38:50;8.37;;;4.50;;
20743;SDS011;56303;52.160;-0.428;2023-03-01T03:41:17;11.90;;;4.43;;
20743;SDS011;56303;52.160;-0.428;2023-03-01T03:43:44;10.83;;;5.00;;
20743;SDS011;56303;52.160;-0.428;2023-03-01T03:46:11;7.10;;;4.73;;
20743;SDS011;56303;52.160;-0.428;2023-03-01T03:48:43;11.03;;;5.17;;
20743;SDS011;56303;52.160;-0.428;2023-03-01T03:51:12;8.57;;;5.20;;
20743;SDS011;56303;52.160;-0.428;2023-03-01T03:53:40;10.63;;;6.37;;
20743;SDS011;56303;52.160;-0.428;2023-03-01T03:56:08;10.13;;;6.57;;
20743;SDS011;56303;52.160;-0.428;2023-03-01T03:58:36;12.70;;;5.70;;
20743;SDS011;56303;52.160;-0.428;2023-03-01T04:01:04;11.20;;;5.90;;
20743;SDS011;56303;52.160;-0.428;2023-03-01T04:03:31;7.37;;;5.03;;
20743;SDS011;56303;52.160;-0.428;2023-03-01T04:05:59;7.87;;;5.37;;
20743;SDS011;56303;52.160;-0.428;2023-03-01T04:08:27;9.80;;;6.30;;
20743;SDS011;56303;52.160;-0.428;2023-03-01T04:11:01;8.73;;;5.00;;
20743;SDS011;56303;52.160;-0.428;2023-03-01T04:13:49;10.33;;;5.23;;
20743;SDS011;56303;52.160;-0.428;2023-03-01T04:16:17;7.20;;;4.40;;
20743;SDS011;56303;52.160;-0.428;2023-03-01T04:18:44;6.80;;;4.23;;
20743;SDS011;56303;52.160;-0.428;2023-03-01T04:21:11;5.87;;;4.10;;
20743;SDS011;56303;52.160;-0.428;2023-03-01T04:23:39;7.17;;;3.80;;
20743;SDS011;56303;52.160;-0.428;2023-03-01T04:26:07;8.67;;;4.27;;
20743;SDS011;56303;52.160;-0.428;2023-03-01T04:28:39;7.33;;;4.30;;
20743;SDS011;56303;52.160;-0.428;2023-03-01T04:31:09;6.13;;;4.20;;
20743;SDS011;56303;52.160;-0.428;2023-03-01T04:33:51;7.17;;;4.00;;
20743;SDS011;56303;52.160;-0.428;2023-03-01T04:36:20;7.53;;;4.13;;
20743;SDS011;56303;52.160;-0.428;2023-03-01T04:38:54;9.57;;;3.50;;
20743;SDS011;56303;52.160;-0.428;2023-03-01T04:41:22;5.23;;;3.50;;
20743;SDS011;56303;52.160;-0.428;2023-03-01T04:43:50;5.60;;;3.57;;
20743;SDS011;56303;52.160;-0.428;2023-03-01T04:46:20;5.77;;;3.47;;
20743;SDS011;56303;52.160;-0.428;2023-03-01T04:48:48;6.67;;;3.60;;
20743;SDS011;56303;52.160;-0.428;2023-03-01T04:51:15;6.07;;;3.83;;
20743;SDS011;56303;52.160;-0.428;2023-03-01T04:53:43;6.63;;;3.30;;
20743;SDS011;56303;52.160;-0.428;2023-03-01T04:56:10;6.67;;;3.30;;
20743;SDS011;56303;52.160;-0.428;2023-03-01T04:58:40;5.43;;;3.23;;
20743;SDS011;56303;52.160;-0.428;2023-03-01T05:01:11;7.20;;;3.40;;
20743;SDS011;56303;52.160;-0.428;2023-03-01T05:03:43;6.13;;;3.30;;
20743;SDS011;56303;52.160;-0.428;2023-03-01T05:06:11;4.77;;;2.93;;
20743;SDS011;56303;52.160;-0.428;2023-03-01T05:08:38;8.27;;;3.50;;
20743;SDS011;56303;52.160;-0.428;2023-03-01T05:11:06;3.57;;;2.47;;
20743;SDS011;56303;52.160;-0.428;2023-03-01T05:13:35;5.30;;;3.17;;
20743;SDS011;56303;52.160;-0.428;2023-03-01T05:16:03;4.37;;;2.83;;
20743;SDS011;56303;52.160;-0.428;2023-03-01T05:18:32;4.30;;;2.60;;
20743;SDS011;56303;52.160;-0.428;2023-03-01T05:21:09;6.07;;;3.03;;
20743;SDS011;56303;52.160;-0.428;2023-03-01T05:23:39;5.97;;;2.43;;
20743;SDS011;56303;52.160;-0.428;2023-03-01T05:26:09;4.73;;;2.87;;
20743;SDS011;56303;52.160;-0.428;2023-03-01T05:28:53;5.50;;;2.80;;
20743;SDS011;56303;52.160;-0.428;2023-03-01T05:31:25;6.27;;;2.90;;
20743;SDS011;56303;52.160;-0.428;2023-03-01T05:33:52;7.50;;;2.50;;
20743;SDS011;56303;52.160;-0.428;2023-03-01T05:36:19;6.33;;;2.67;;
20743;SDS011;56303;52.160;-0.428;2023-03-01T05:38:46;5.57;;;2.00;;
20743;SDS011;56303;52.160;-0.428;2023-03-01T05:41:13;5.80;;;2.93;;
20743;SDS011;56303;52.160;-0.428;2023-03-01T05:43:42;5.73;;;2.90;;
20743;SDS011;56303;52.160;-0.428;2023-03-01T05:46:11;7.00;;;2.80;;
20743;SDS011;56303;52.160;-0.428;2023-03-01T05:48:39;6.07;;;2.83;;
20743;SDS011;56303;52.160;-0.428;2023-03-01T05:51:06;6.07;;;2.70;;
20743;SDS011;56303;52.160;-0.428;2023-03-01T05:53:33;5.47;;;2.87;;
20743;SDS011;56303;52.160;-0.428;2023-03-01T05:56:02;6.17;;;2.97;;
20743;SDS011;56303;52.160;-0.428;2023-03-01T05:58:30;5.30;;;2.97;;
20743;SDS011;56303;52.160;-0.428;2023-03-01T06:00:57;9.27;;;4.10;;
20743;SDS011;56303;52.160;-0.428;2023-03-01T06:03:25;12.40;;;5.43;;
20743;SDS011;56303;52.160;-0.428;2023-03-01T06:05:55;14.97;;;9.50;;
20743;SDS011;56303;52.160;-0.428;2023-03-01T06:08:23;19.27;;;9.70;;
20743;SDS011;56303;52.160;-0.428;2023-03-01T06:10:54;17.20;;;9.27;;
20743;SDS011;56303;52.160;-0.428;2023-03-01T06:13:22;16.83;;;9.63;;
20743;SDS011;56303;52.160;-0.428;2023-03-01T06:15:49;13.83;;;9.07;;
20743;SDS011;56303;52.160;-0.428;2023-03-01T06:18:16;16.77;;;10.07;;
20743;SDS011;56303;52.160;-0.428;2023-03-01T06:20:43;15.23;;;8.23;;
20743;SDS011;56303;52.160;-0.428;2023-03-01T06:23:10;14.33;;;7.80;;
20743;SDS011;56303;52.160;-0.428;2023-03-01T06:25:37;12.00;;;7.53;;
20743;SDS011;56303;52.160;-0.428;2023-03-01T06:28:04;13.10;;;7.67;;
20743;SDS011;56303;52.160;-0.428;2023-03-01T06:30:31;14.53;;;7.77;;
20743;SDS011;56303;52.160;-0.428;2023-03-01T06:32:58;14.13;;;8.10;;
20743;SDS011;56303;52.160;-0.428;2023-03-01T06:35:29;16.17;;;9.57;;
20743;SDS011;56303;52.160;-0.428;2023-03-01T06:37:57;18.63;;;10.17;;
20743;SDS011;56303;52.160;-0.428;2023-03-01T06:40:26;16.07;;;10.17;;
20743;SDS011;56303;52.160;-0.428;2023-03-01T06:42:53;17.50;;;11.03;;
20743;SDS011;56303;52.160;-0.428;2023-03-01T06:45:20;18.27;;;11.23;;
20743;SDS011;56303;52.160;-0.428;2023-03-01T06:47:47;17.73;;;11.83;;
20743;SDS011;56303;52.160;-0.428;2023-03-01T06:50:14;18.83;;;12.00;;
20743;SDS011;56303;52.160;-0.428;2023-03-01T06:52:42;25.30;;;13.13;;
20743;SDS011;56303;52.160;-0.428;2023-03-01T06:55:11;23.33;;;13.23;;
20743;SDS011;56303;52.160;-0.428;2023-03-01T06:57:39;20.03;;;12.83;;
20743;SDS011;56303;52.160;-0.428;2023-03-01T07:00:06;23.23;;;14.27;;
20743;SDS011;56303;52.160;-0.428;2023-03-01T07:02:34;19.67;;;12.43;;
20743;SDS011;56303;52.160;-0.428;2023-03-01T07:05:01;20.77;;;13.53;;
20743;SDS011;56303;52.160;-0.428;2023-03-01T07:07:28;24.53;;;14.07;;
20743;SDS011;56303;52.160;-0.428;2023-03-01T07:09:57;23.53;;;14.73;;
20743;SDS011;56303;52.160;-0.428;2023-03-01T07:12:24;24.87;;;15.47;;
20743;SDS011;56303;52.160;-0.428;2023-03-01T07:14:51;21.17;;;14.30;;
20743;SDS011;56303;52.160;-0.428;2023-03-01T07:17:18;23.10;;;15.27;;
20743;SDS011;56303;52.160;-0.428;2023-03-01T07:19:45;23.03;;;14.53;;
20743;SDS011;56303;52.160;-0.428;2023-03-01T07:22:11;20.47;;;13.17;;
20743;SDS011;56303;52.160;-0.428;2023-03-01T07:24:38;19.57;;;13.60;;
20743;SDS011;56303;52.160;-0.428;2023-03-01T07:27:06;23.60;;;14.43;;
20743;SDS011;56303;52.160;-0.428;2023-03-01T07:29:33;28.03;;;15.40;;
20743;SDS011;56303;52.160;-0.428;2023-03-01T07:32:03;24.77;;;14.23;;
20743;SDS011;56303;52.160;-0.428;2023-03-01T07:34:31;26.97;;;16.30;;
20743;SDS011;56303;52.160;-0.428;2023-03-01T07:36:58;22.83;;;13.07;;
20743;SDS011;56303;52.160;-0.428;2023-03-01T07:39:25;20.23;;;12.87;;
20743;SDS011;56303;52.160;-0.428;2023-03-01T07:41:52;24.93;;;13.03;;
20743;SDS011;56303;52.160;-0.428;2023-03-01T07:44:18;24.03;;;13.17;;
20743;SDS011;56303;52.160;-0.428;2023-03-01T07:46:46;23.77;;;14.30;;
20743;SDS011;56303;52.160;-0.428;2023-03-01T07:49:12;25.33;;;14.40;;
20743;SDS011;56303;52.160;-0.428;2023-03-01T07:51:39;26.33;;;14.10;;
20743;SDS011;56303;52.160;-0.428;2023-03-01T07:54:06;24.90;;;12.90;;
20743;SDS011;56303;52.160;-0.428;2023-03-01T07:56:33;23.77;;;13.90;;
20743;SDS011;56303;52.160;-0.428;2023-03-01T07:59:00;20.47;;;12.27;;
20743;SDS011;56303;52.160;-0.428;2023-03-01T08:01:26;22.13;;;12.27;;
20743;SDS011;56303;52.160;-0.428;2023-03-01T08:03:53;17.53;;;11.03;;
20743;SDS011;56303;52.160;-0.428;2023-03-01T08:06:20;17.47;;;10.40;;
20743;SDS011;56303;52.160;-0.428;2023-03-01T08:08:47;20.97;;;12.10;;
20743;SDS011;56303;52.160;-0.428;2023-03-01T08:11:14;18.73;;;11.43;;
20743;SDS011;56303;52.160;-0.428;2023-03-01T08:13:42;18.30;;;11.97;;
20743;SDS011;56303;52.160;-0.428;2023-03-01T08:16:11;21.23;;;11.17;;
20743;SDS011;56303;52.160;-0.428;2023-03-01T08:18:39;16.57;;;10.30;;
20743;SDS011;56303;52.160;-0.428;2023-03-01T08:21:11;15.93;;;10.80;;
20743;SDS011;56303;52.160;-0.428;2023-03-01T08:23:40;18.80;;;11.83;;
20743;SDS011;56303;52.160;-0.428;2023-03-01T08:26:19;15.53;;;10.40;;
20743;SDS011;56303;52.160;-0.428;2023-03-01T08:28:48;23.83;;;13.20;;
20743;SDS011;56303;52.160;-0.428;2023-03-01T08:31:18;20.33;;;13.57;;
20743;SDS011;56303;52.160;-0.428;2023-03-01T08:33:48;20.47;;;13.50;;
20743;SDS011;56303;52.160;-0.428;2023-03-01T08:36:22;20.50;;;13.23;;
20743;SDS011;56303;52.160;-0.428;2023-03-01T08:38:51;20.60;;;13.20;;
20743;SDS011;56303;52.160;-0.428;2023-03-01T08:41:18;20.27;;;12.73;;
20743;SDS011;56303;52.160;-0.428;2023-03-01T08:43:45;18.60;;;12.33;;
20743;SDS011;56303;52.160;-0.428;2023-03-01T08:46:12;16.77;;;11.33;;
20743;SDS011;56303;52.160;-0.428;2023-03-01T08:48:40;14.57;;;10.13;;
20743;SDS011;56303;52.160;-0.428;2023-03-01T08:51:14;14.57;;;9.93;;
20743;SDS011;56303;52.160;-0.428;2023-03-01T08:53:44;15.47;;;10.07;;
20743;SDS011;56303;52.160;-0.428;2023-03-01T08:56:11;17.10;;;9.27;;
20743;SDS011;56303;52.160;-0.428;2023-03-01T08:58:39;12.07;;;7.50;;
20743;SDS011;56303;52.160;-0.428;2023-03-01T09:01:06;11.80;;;7.87;;
20743;SDS011;56303;52.160;-0.428;2023-03-01T09:03:35;14.37;;;7.17;;
20743;SDS011;56303;52.160;-0.428;2023-03-01T09:06:02;12.27;;;7.90;;
20743;SDS011;56303;52.160;-0.428;2023-03-01T09:08:31;10.93;;;6.40;;
20743;SDS011;56303;52.160;-0.428;2023-03-01T09:11:02;9.93;;;6.60;;
20743;SDS011;56303;52.160;-0.428;2023-03-01T09:13:31;10.97;;;6.63;;
20743;SDS011;56303;52.160;-0.428;2023-03-01T09:16:00;11.80;;;8.50;;
20743;SDS011;56303;52.160;-0.428;2023-03-01T09:18:28;14.20;;;10.27;;
20743;SDS011;56303;52.160;-0.428;2023-03-01T09:21:02;19.27;;;12.10;;
20743;SDS011;56303;52.160;-0.428;2023-03-01T09:23:41;18.67;;;11.87;;
20743;SDS011;56303;52.160;-0.428;2023-03-01T09:26:13;19.00;;;12.43;;
20743;SDS011;56303;52.160;-0.428;2023-03-01T09:28:45;16.63;;;11.50;;
20743;SDS011;56303;52.160;-0.428;2023-03-01T09:31:13;14.47;;;10.27;;
20743;SDS011;56303;52.160;-0.428;2023-03-01T09:33:42;13.93;;;9.03;;
20743;SDS011;56303;52.160;-0.428;2023-03-01T09:36:12;9.30;;;7.13;;
20743;SDS011;56303;52.160;-0.428;2023-03-01T09:38:41;7.50;;;5.83;;
20743;SDS011;56303;52.160;-0.428;2023-03-01T09:41:10;9.90;;;5.60;;
20743;SDS011;56303;52.160;-0.428;2023-03-01T09:43:49;9.97;;;6.17;;
20743;SDS011;56303;52.160;-0.428;2023-03-01T09:46:23;11.37;;;7.53;;
20743;SDS011;56303;52.160;-0.428;2023-03-01T09:51:26;11.97;;;6.77;;
20743;SDS011;56303;52.160;-0.428;2023-03-01T09:53:57;15.77;;;7.00;;
20743;SDS011;56303;52.160;-0.428;2023-03-01T09:56:29;10.13;;;6.87;;
20743;SDS011;56303;52.160;-0.428;2023-03-01T09:59:38;9.77;;;6.43;;
20743;SDS011;56303;52.160;-0.428;2023-03-01T10:05:36;12.23;;;5.30;;
20743;SDS011;56303;52.160;-0.428;2023-03-01T10:08:38;7.83;;;4.73;;
20743;SDS011;56303;52.160;-0.428;2023-03-01T10:11:17;9.47;;;5.77;;
20743;SDS011;56303;52.160;-0.428;2023-03-01T10:13:52;10.30;;;6.40;;
20743;SDS011;56303;52.160;-0.428;2023-03-01T10:16:26;11.07;;;6.30;;
20743;SDS011;56303;52.160;-0.428;2023-03-01T10:19:03;9.47;;;7.20;;
20743;SDS011;56303;52.160;-0.428;2023-03-01T10:21:31;12.00;;;8.20;;
20743;SDS011;56303;52.160;-0.428;2023-03-01T10:24:14;15.13;;;9.70;;
20743;SDS011;56303;52.160;-0.428;2023-03-01T10:26:55;11.93;;;7.67;;
20743;SDS011;56303;52.160;-0.428;2023-03-01T10:29:34;13.17;;;7.13;;
20743;SDS011;56303;52.160;-0.428;2023-03-01T10:32:14;10.77;;;5.77;;
20743;SDS011;56303;52.160;-0.428;2023-03-01T10:34:42;5.13;;;3.43;;
20743;SDS011;56303;52.160;-0.428;2023-03-01T10:37:19;7.60;;;2.97;;
20743;SDS011;56303;52.160;-0.428;2023-03-01T10:42:38;2.60;;;2.00;;
20743;SDS011;56303;52.160;-0.428;2023-03-01T10:48:19;5.80;;;3.20;;
20743;SDS011;56303;52.160;-0.428;2023-03-01T10:51:04;6.30;;;2.80;;
20743;SDS011;56303;52.160;-0.428;2023-03-01T10:53:38;4.73;;;3.33;;
20743;SDS011;56303;52.160;-0.428;2023-03-01T10:58:37;5.27;;;3.90;;
20743;SDS011;56303;52.160;-0.428;2023-03-01T11:03:42;8.93;;;5.30;;
20743;SDS011;56303;52.160;-0.428;2023-03-01T11:08:43;10.40;;;6.90;;
20743;SDS011;56303;52.160;-0.428;2023-03-01T11:11:19;10.33;;;8.17;;
20743;SDS011;56303;52.160;-0.428;2023-03-01T11:13:50;9.33;;;7.27;;
20743;SDS011;56303;52.160;-0.428;2023-03-01T11:16:28;10.13;;;7.43;;
20743;SDS011;56303;52.160;-0.428;2023-03-01T11:19:19;8.87;;;6.30;;
20743;SDS011;56303;52.160;-0.428;2023-03-01T11:27:34;5.50;;;3.20;;
20743;SDS011;56303;52.160;-0.428;2023-03-01T11:30:13;4.37;;;3.00;;
20743;SDS011;56303;52.160;-0.428;2023-03-01T11:35:31;4.47;;;2.80;;
20743;SDS011;56303;52.160;-0.428;2023-03-01T11:54:54;1.43;;;1.10;;
20743;SDS011;56303;52.160;-0.428;2023-03-01T11:57:47;1.83;;;1.23;;
20743;SDS011;56303;52.160;-0.428;2023-03-01T12:06:01;2.93;;;0.97;;
20743;SDS011;56303;52.160;-0.428;2023-03-01T12:14:10;3.67;;;1.00;;
20743;SDS011;56303;52.160;-0.428;2023-03-01T12:16:59;0.83;;;0.60;;
20743;SDS011;56303;52.160;-0.428;2023-03-01T12:22:45;3.87;;;1.10;;
20743;SDS011;56303;52.160;-0.428;2023-03-01T12:28:24;2.93;;;1.10;;
20743;SDS011;56303;52.160;-0.428;2023-03-01T12:33:36;2.10;;;0.90;;
20743;SDS011;56303;52.160;-0.428;2023-03-01T12:44:57;3.83;;;1.80;;
20743;SDS011;56303;52.160;-0.428;2023-03-01T12:50:48;3.97;;;1.63;;
20743;SDS011;56303;52.160;-0.428;2023-03-01T12:53:23;3.60;;;1.27;;
20743;SDS011;56303;52.160;-0.428;2023-03-01T12:55:52;2.63;;;1.00;;
20743;SDS011;56303;52.160;-0.428;2023-03-01T13:01:13;2.40;;;0.83;;
20743;SDS011;56303;52.160;-0.428;2023-03-01T13:17:59;3.90;;;1.50;;
20743;SDS011;56303;52.160;-0.428;2023-03-01T13:20:44;0.80;;;0.70;;
20743;SDS011;56303;52.160;-0.428;2023-03-01T13:33:49;2.00;;;0.77;;
20743;SDS011;56303;52.160;-0.428;2023-03-01T13:39:01;2.20;;;0.93;;
20743;SDS011;56303;52.160;-0.428;2023-03-01T13:41:49;2.93;;;1.00;;
20743;SDS011;56303;52.160;-0.428;2023-03-01T13:46:52;3.57;;;1.03;;
20743;SDS011;56303;52.160;-0.428;2023-03-01T13:49:29;1.20;;;0.60;;
20743;SDS011;56303;52.160;-0.428;2023-03-01T13:57:49;3.63;;;1.17;;
20743;SDS011;56303;52.160;-0.428;2023-03-01T14:03:03;3.27;;;0.73;;
20743;SDS011;56303;52.160;-0.428;2023-03-01T14:05:37;3.50;;;0.90;;
20743;SDS011;56303;52.160;-0.428;2023-03-01T14:08:17;3.43;;;1.10;;
20743;SDS011;56303;52.160;-0.428;2023-03-01T14:10:53;2.37;;;1.10;;
20743;SDS011;56303;52.160;-0.428;2023-03-01T14:19:21;2.17;;;0.80;;
20743;SDS011;56303;52.160;-0.428;2023-03-01T14:22:03;2.07;;;0.70;;
20743;SDS011;56303;52.160;-0.428;2023-03-01T14:24:31;1.93;;;1.10;;
20743;SDS011;56303;52.160;-0.428;2023-03-01T14:27:01;2.83;;;1.00;;
20743;SDS011;56303;52.160;-0.428;2023-03-01T14:29:35;2.00;;;0.83;;
20743;SDS011;56303;52.160;-0.428;2023-03-01T14:34:48;2.30;;;0.80;;
20743;SDS011;56303;52.160;-0.428;2023-03-01T14:37:22;3.40;;;0.80;;
20743;SDS011;56303;52.160;-0.428;2023-03-01T14:39:52;3.00;;;0.87;;
20743;SDS011;56303;52.160;-0.428;2023-03-01T14:42:20;3.37;;;1.33;;
20743;SDS011;56303;52.160;-0.428;2023-03-01T14:44:50;1.63;;;0.90;;
20743;SDS011;56303;52.160;-0.428;2023-03-01T14:47:29;5.40;;;3.07;;
20743;SDS011;56303;52.160;-0.428;2023-03-01T14:49:59;2.07;;;0.83;;
20743;SDS011;56303;52.160;-0.428;2023-03-01T14:52:37;3.93;;;1.00;;
20743;SDS011;56303;52.160;-0.428;2023-03-01T14:55:13;3.97;;;0.90;;
20743;SDS011;56303;52.160;-0.428;2023-03-01T14:57:50;2.33;;;1.37;;
20743;SDS011;56303;52.160;-0.428;2023-03-01T15:00:18;4.23;;;1.53;;
20743;SDS011;56303;52.160;-0.428;2023-03-01T15:02:48;2.47;;;1.40;;
20743;SDS011;56303;52.160;-0.428;2023-03-01T15:05:18;6.23;;;2.53;;
20743;SDS011;56303;52.160;-0.428;2023-03-01T15:07:59;4.70;;;1.13;;
20743;SDS011;56303;52.160;-0.428;2023-03-01T15:10:33;2.23;;;1.10;;
20743;SDS011;56303;52.160;-0.428;2023-03-01T15:16:11;3.97;;;2.10;;
20743;SDS011;56303;52.160;-0.428;2023-03-01T15:19:03;2.97;;;1.17;;
20743;SDS011;56303;52.160;-0.428;2023-03-01T15:21:33;4.43;;;1.50;;
20743;SDS011;56303;52.160;-0.428;2023-03-01T15:29:28;2.83;;;1.53;;
20743;SDS011;56303;52.160;-0.428;2023-03-01T15:31:58;5.17;;;2.13;;
20743;SDS011;56303;52.160;-0.428;2023-03-01T15:34:32;6.43;;;1.77;;
20743;SDS011;56303;52.160;-0.428;2023-03-01T15:37:04;6.73;;;2.97;;
20743;SDS011;56303;52.160;-0.428;2023-03-01T15:42:13;5.87;;;2.83;;
20743;SDS011;56303;52.160;-0.428;2023-03-01T15:47:48;4.10;;;1.07;;
20743;SDS011;56303;52.160;-0.428;2023-03-01T15:50:42;4.60;;;1.40;;
20743;SDS011;56303;52.160;-0.428;2023-03-01T15:53:10;3.30;;;1.73;;
20743;SDS011;56303;52.160;-0.428;2023-03-01T15:55:40;3.60;;;1.87;;
20743;SDS011;56303;52.160;-0.428;2023-03-01T15:58:15;4.53;;;1.43;;
20743;SDS011;56303;52.160;-0.428;2023-03-01T16:00:48;4.00;;;1.17;;
20743;SDS011;56303;52.160;-0.428;2023-03-01T16:03:27;5.57;;;1.63;;
20743;SDS011;56303;52.160;-0.428;2023-03-01T16:05:55;4.13;;;1.80;;
20743;SDS011;56303;52.160;-0.428;2023-03-01T16:08:22;2.17;;;1.47;;
20743;SDS011;56303;52.160;-0.428;2023-03-01T16:10:49;5.37;;;1.80;;
20743;SDS011;56303;52.160;-0.428;2023-03-01T16:13:17;2.97;;;1.53;;
20743;SDS011;56303;52.160;-0.428;2023-03-01T16:15:45;5.90;;;1.30;;
20743;SDS011;56303;52.160;-0.428;2023-03-01T16:18:14;3.50;;;1.30;;
20743;SDS011;56303;52.160;-0.428;2023-03-01T16:20:41;3.33;;;1.20;;
20743;SDS011;56303;52.160;-0.428;2023-03-01T16:23:10;4.40;;;2.00;;
20743;SDS011;56303;52.160;-0.428;2023-03-01T16:25:37;3.27;;;1.37;;
20743;SDS011;56303;52.160;-0.428;2023-03-01T16:28:04;4.10;;;1.30;;
20743;SDS011;56303;52.160;-0.428;2023-03-01T16:30:37;3.60;;;1.40;;
20743;SDS011;56303;52.160;-0.428;2023-03-01T16:33:05;4.60;;;1.70;;
20743;SDS011;56303;52.160;-0.428;2023-03-01T16:35:54;4.37;;;1.40;;
20743;SDS011;56303;52.160;-0.428;2023-03-01T16:38:21;7.40;;;2.00;;
20743;SDS011;56303;52.160;-0.428;2023-03-01T16:40:48;5.43;;;1.50;;
20743;SDS011;56303;52.160;-0.428;2023-03-01T16:43:16;2.53;;;1.13;;
20743;SDS011;56303;52.160;-0.428;2023-03-01T16:45:52;6.10;;;1.80;;
20743;SDS011;56303;52.160;-0.428;2023-03-01T16:48:18;3.03;;;1.50;;
20743;SDS011;56303;52.160;-0.428;2023-03-01T16:50:45;5.47;;;1.90;;
20743;SDS011;56303;52.160;-0.428;2023-03-01T16:53:22;4.07;;;1.83;;
20743;SDS011;56303;52.160;-0.428;2023-03-01T16:55:56;3.87;;;1.37;;
20743;SDS011;56303;52.160;-0.428;2023-03-01T16:58:24;5.23;;;1.93;;
20743;SDS011;56303;52.160;-0.428;2023-03-01T17:00:55;4.33;;;1.80;;
20743;SDS011;56303;52.160;-0.428;2023-03-01T17:03:23;3.33;;;1.70;;
20743;SDS011;56303;52.160;-0.428;2023-03-01T17:05:52;7.83;;;1.90;;
20743;SDS011;56303;52.160;-0.428;2023-03-01T17:08:19;5.70;;;1.53;;
20743;SDS011;56303;52.160;-0.428;2023-03-01T17:10:46;4.40;;;1.70;;
20743;SDS011;56303;52.160;-0.428;2023-03-01T17:13:13;5.50;;;1.57;;
20743;SDS011;56303;52.160;-0.428;2023-03-01T17:15:40;6.63;;;2.60;;
20743;SDS011;56303;52.160;-0.428;2023-03-01T17:18:08;5.87;;;2.37;;
20743;SDS011;56303;52.160;-0.428;2023-03-01T17:20:35;5.47;;;2.03;;